sensor_id;sensor_type;location;lat;lon;timestamp;temperature;humidity
71668;DHT22;59504;54.806;9.640;2023-11-19T00:02:05;5.30;82.00
71668;DHT22;59504;54.806;9.640;2023-11-19T00:04:36;5.20;81.80
71668;DHT22;59504;54.806;9.640;2023-11-19T00:07:11;5.30;82.10
71668;DHT22;59504;54.806;9.640;2023-11-19T00:09:36;5.30;82.00
71668;DHT22;59504;54.806;9.640;2023-11-19T00:11:57;5.30;82.10
71668;DHT22;59504;54.806;9.640;2023-11-19T00:14:20;5.40;82.20
71668;DHT22;59504;54.806;9.640;2023-11-19T00:16:47;5.30;82.20
71668;DHT22;59504;54.806;9.640;2023-11-19T00:19:21;5.30;82.30
71668;DHT22;59504;54.806;9.640;2023-11-19T00:21:41;5.20;82.30
71668;DHT22;59504;54.806;9.640;2023-11-19T00:24:02;5.40;82.40
71668;DHT22;59504;54.806;9.640;2023-11-19T00:26:05;5.30;82.50
71668;DHT22;59504;54.806;9.640;2023-11-19T00:28:27;5.30;82.50
71668;DHT22;59504;54.806;9.640;2023-11-19T00:30:36;5.40;82.50
71668;DHT22;59504;54.806;9.640;2023-11-19T00:32:37;5.40;82.50
71668;DHT22;59504;54.806;9.640;2023-11-19T00:34:43;5.40;82.50
71668;DHT22;59504;54.806;9.640;2023-11-19T00:37:07;5.40;82.40
71668;DHT22;59504;54.806;9.640;2023-11-19T00:39:29;5.40;82.40
71668;DHT22;59504;54.806;9.640;2023-11-19T00:41:50;5.40;82.40
71668;DHT22;59504;54.806;9.640;2023-11-19T00:44:36;5.40;82.50
71668;DHT22;59504;54.806;9.640;2023-11-19T00:46:30;5.30;82.30
71668;DHT22;59504;54.806;9.640;2023-11-19T00:48:42;5.40;82.40
71668;DHT22;59504;54.806;9.640;2023-11-19T00:51:07;5.30;82.50
71668;DHT22;59504;54.806;9.640;2023-11-19T00:53:35;5.50;82.50
71668;DHT22;59504;54.806;9.640;2023-11-19T01:02:07;5.30;82.40
71668;DHT22;59504;54.806;9.640;2023-11-19T01:05:08;5.40;82.50
71668;DHT22;59504;54.806;9.640;2023-11-19T01:10:43;5.20;82.50
71668;DHT22;59504;54.806;9.640;2023-11-19T01:13:04;5.40;82.70
71668;DHT22;59504;54.806;9.640;2023-11-19T01:15:29;5.30;82.60
71668;DHT22;59504;54.806;9.640;2023-11-19T01:17:49;5.40;82.60
71668;DHT22;59504;54.806;9.640;2023-11-19T01:20:16;5.40;82.60
71668;DHT22;59504;54.806;9.640;2023-11-19T01:22:26;5.30;82.70
71668;DHT22;59504;54.806;9.640;2023-11-19T01:24:27;5.40;82.70
71668;DHT22;59504;54.806;9.640;2023-11-19T01:26:49;5.40;82.70
71668;DHT22;59504;54.806;9.640;2023-11-19T01:29:13;5.40;82.60
71668;DHT22;59504;54.806;9.640;2023-11-19T01:31:40;5.40;82.60
71668;DHT22;59504;54.806;9.640;2023-11-19T01:34:01;5.40;82.60
71668;DHT22;59504;54.806;9.640;2023-11-19T01:36:31;5.40;82.60
71668;DHT22;59504;54.806;9.640;2023-11-19T01:39:00;5.30;82.50
71668;DHT22;59504;54.806;9.640;2023-11-19T01:41:44;5.40;82.50
71668;DHT22;59504;54.806;9.640;2023-11-19T01:44:08;5.40;82.60
71668;DHT22;59504;54.806;9.640;2023-11-19T01:46:29;5.40;82.60
71668;DHT22;59504;54.806;9.640;2023-11-19T01:48:53;5.40;83.30
71668;DHT22;59504;54.806;9.640;2023-11-19T01:51:01;5.40;82.60
71668;DHT22;59504;54.806;9.640;2023-11-19T01:53:03;5.40;82.60
71668;DHT22;59504;54.806;9.640;2023-11-19T01:55:08;5.40;82.60
71668;DHT22;59504;54.806;9.640;2023-11-19T01:57:37;5.30;82.60
71668;DHT22;59504;54.806;9.640;2023-11-19T02:00:06;5.50;82.70
71668;DHT22;59504;54.806;9.640;2023-11-19T02:02:40;5.40;82.70
71668;DHT22;59504;54.806;9.640;2023-11-19T02:05:08;5.40;82.60
71668;DHT22;59504;54.806;9.640;2023-11-19T02:07:29;5.30;82.70
71668;DHT22;59504;54.806;9.640;2023-11-19T02:09:55;5.40;82.70
71668;DHT22;59504;54.806;9.640;2023-11-19T02:12:19;5.40;82.70
71668;DHT22;59504;54.806;9.640;2023-11-19T02:14:40;5.50;82.80
71668;DHT22;59504;54.806;9.640;2023-11-19T02:17:01;5.40;82.80
71668;DHT22;59504;54.806;9.640;2023-11-19T02:19:22;5.40;82.70
71668;DHT22;59504;54.806;9.640;2023-11-19T02:21:37;5.30;82.50
71668;DHT22;59504;54.806;9.640;2023-11-19T02:23:58;5.40;82.70
71668;DHT22;59504;54.806;9.640;2023-11-19T02:28:55;5.40;82.80
71668;DHT22;59504;54.806;9.640;2023-11-19T02:34:31;5.40;82.80
71668;DHT22;59504;54.806;9.640;2023-11-19T02:36:54;5.40;82.70
71668;DHT22;59504;54.806;9.640;2023-11-19T02:39:18;5.40;82.80
71668;DHT22;59504;54.806;9.640;2023-11-19T02:41:45;5.40;82.70
71668;DHT22;59504;54.806;9.640;2023-11-19T02:44:13;5.50;82.90
71668;DHT22;59504;54.806;9.640;2023-11-19T02:46:34;5.50;82.90
71668;DHT22;59504;54.806;9.640;2023-11-19T02:48:54;5.40;82.70
71668;DHT22;59504;54.806;9.640;2023-11-19T02:51:15;5.50;82.90
71668;DHT22;59504;54.806;9.640;2023-11-19T02:53:38;5.40;82.80
71668;DHT22;59504;54.806;9.640;2023-11-19T02:56:11;5.40;82.80
71668;DHT22;59504;54.806;9.640;2023-11-19T02:58:47;5.40;82.80
71668;DHT22;59504;54.806;9.640;2023-11-19T03:01:09;5.50;82.90
71668;DHT22;59504;54.806;9.640;2023-11-19T03:03:39;5.50;83.00
71668;DHT22;59504;54.806;9.640;2023-11-19T03:05:54;5.50;82.90
71668;DHT22;59504;54.806;9.640;2023-11-19T03:08:17;5.50;82.90
71668;DHT22;59504;54.806;9.640;2023-11-19T03:11:01;5.40;83.60
71668;DHT22;59504;54.806;9.640;2023-11-19T03:13:21;5.40;83.60
71668;DHT22;59504;54.806;9.640;2023-11-19T03:15:54;5.50;83.00
71668;DHT22;59504;54.806;9.640;2023-11-19T03:18:14;5.50;83.10
71668;DHT22;59504;54.806;9.640;2023-11-19T03:21:07;5.50;83.00
71668;DHT22;59504;54.806;9.640;2023-11-19T03:23:34;5.40;83.00
71668;DHT22;59504;54.806;9.640;2023-11-19T03:25:59;5.50;83.10
71668;DHT22;59504;54.806;9.640;2023-11-19T03:28:21;5.40;83.00
71668;DHT22;59504;54.806;9.640;2023-11-19T03:30:42;5.50;83.20
71668;DHT22;59504;54.806;9.640;2023-11-19T03:33:08;5.50;83.20
71668;DHT22;59504;54.806;9.640;2023-11-19T03:37:51;5.40;83.10
71668;DHT22;59504;54.806;9.640;2023-11-19T03:39:53;5.50;83.20
71668;DHT22;59504;54.806;9.640;2023-11-19T03:42:01;5.50;83.20
71668;DHT22;59504;54.806;9.640;2023-11-19T03:44:03;5.40;83.00
71668;DHT22;59504;54.806;9.640;2023-11-19T03:46:17;5.50;83.20
71668;DHT22;59504;54.806;9.640;2023-11-19T03:48:22;5.50;83.30
71668;DHT22;59504;54.806;9.640;2023-11-19T03:50:30;5.60;83.30
71668;DHT22;59504;54.806;9.640;2023-11-19T03:56:04;5.50;83.20
71668;DHT22;59504;54.806;9.640;2023-11-19T03:58:34;5.50;83.20
71668;DHT22;59504;54.806;9.640;2023-11-19T04:01:15;5.50;83.20
71668;DHT22;59504;54.806;9.640;2023-11-19T04:06:09;5.60;83.40
71668;DHT22;59504;54.806;9.640;2023-11-19T04:08:23;5.60;83.30
71668;DHT22;59504;54.806;9.640;2023-11-19T04:10:44;5.60;83.40
71668;DHT22;59504;54.806;9.640;2023-11-19T04:13:11;5.60;83.30
71668;DHT22;59504;54.806;9.640;2023-11-19T04:16:00;5.60;83.40
71668;DHT22;59504;54.806;9.640;2023-11-19T04:18:27;5.50;83.30
71668;DHT22;59504;54.806;9.640;2023-11-19T04:20:55;5.60;83.40
71668;DHT22;59504;54.806;9.640;2023-11-19T04:23:44;5.50;83.30
71668;DHT22;59504;54.806;9.640;2023-11-19T04:25:45;5.50;83.30
71668;DHT22;59504;54.806;9.640;2023-11-19T04:27:54;5.50;83.40
71668;DHT22;59504;54.806;9.640;2023-11-19T04:29:55;5.60;83.40
71668;DHT22;59504;54.806;9.640;2023-11-19T04:31:59;5.60;83.40
71668;DHT22;59504;54.806;9.640;2023-11-19T04:34:23;5.60;83.40
71668;DHT22;59504;54.806;9.640;2023-11-19T04:36:37;5.60;83.40
71668;DHT22;59504;54.806;9.640;2023-11-19T04:38:57;5.70;83.30
71668;DHT22;59504;54.806;9.640;2023-11-19T04:41:19;5.70;83.40
71668;DHT22;59504;54.806;9.640;2023-11-19T04:43:40;5.70;83.50
71668;DHT22;59504;54.806;9.640;2023-11-19T04:46:04;5.70;83.40
71668;DHT22;59504;54.806;9.640;2023-11-19T04:48:24;5.60;83.40
71668;DHT22;59504;54.806;9.640;2023-11-19T04:50:54;5.60;83.30
71668;DHT22;59504;54.806;9.640;2023-11-19T04:53:14;5.70;83.40
71668;DHT22;59504;54.806;9.640;2023-11-19T04:55:43;5.60;83.30
71668;DHT22;59504;54.806;9.640;2023-11-19T04:58:04;5.60;83.30
71668;DHT22;59504;54.806;9.640;2023-11-19T05:00:25;5.70;83.40
71668;DHT22;59504;54.806;9.640;2023-11-19T05:02:49;5.70;83.30
71668;DHT22;59504;54.806;9.640;2023-11-19T05:05:12;5.80;83.50
71668;DHT22;59504;54.806;9.640;2023-11-19T05:07:33;5.60;83.30
71668;DHT22;59504;54.806;9.640;2023-11-19T05:09:53;5.70;83.30
71668;DHT22;59504;54.806;9.640;2023-11-19T05:11:54;5.80;83.40
71668;DHT22;59504;54.806;9.640;2023-11-19T05:13:58;5.80;83.40
71668;DHT22;59504;54.806;9.640;2023-11-19T05:15:58;5.70;83.30
71668;DHT22;59504;54.806;9.640;2023-11-19T05:17:59;5.80;83.40
71668;DHT22;59504;54.806;9.640;2023-11-19T05:20:00;5.80;83.40
71668;DHT22;59504;54.806;9.640;2023-11-19T05:22:00;5.80;83.30
71668;DHT22;59504;54.806;9.640;2023-11-19T05:24:04;5.80;83.30
71668;DHT22;59504;54.806;9.640;2023-11-19T05:26:05;5.60;83.30
71668;DHT22;59504;54.806;9.640;2023-11-19T05:28:05;5.80;83.40
71668;DHT22;59504;54.806;9.640;2023-11-19T05:30:06;5.80;83.30
71668;DHT22;59504;54.806;9.640;2023-11-19T05:32:10;5.70;83.30
71668;DHT22;59504;54.806;9.640;2023-11-19T05:34:11;5.80;83.40
71668;DHT22;59504;54.806;9.640;2023-11-19T05:36:12;5.70;83.30
71668;DHT22;59504;54.806;9.640;2023-11-19T05:38:13;5.90;83.70
71668;DHT22;59504;54.806;9.640;2023-11-19T05:40:20;5.90;83.50
71668;DHT22;59504;54.806;9.640;2023-11-19T05:42:21;5.80;83.40
71668;DHT22;59504;54.806;9.640;2023-11-19T05:44:21;5.90;83.40
71668;DHT22;59504;54.806;9.640;2023-11-19T05:46:22;5.80;83.30
71668;DHT22;59504;54.806;9.640;2023-11-19T05:48:33;5.90;83.40
71668;DHT22;59504;54.806;9.640;2023-11-19T05:50:36;5.90;83.40
71668;DHT22;59504;54.806;9.640;2023-11-19T05:52:37;5.80;83.30
71668;DHT22;59504;54.806;9.640;2023-11-19T05:54:38;5.90;83.40
71668;DHT22;59504;54.806;9.640;2023-11-19T05:56:49;5.90;83.40
71668;DHT22;59504;54.806;9.640;2023-11-19T05:58:52;5.90;83.40
71668;DHT22;59504;54.806;9.640;2023-11-19T06:01:12;5.90;83.40
71668;DHT22;59504;54.806;9.640;2023-11-19T06:03:12;5.90;84.20
71668;DHT22;59504;54.806;9.640;2023-11-19T06:05:19;6.00;83.50
71668;DHT22;59504;54.806;9.640;2023-11-19T06:07:20;5.90;83.40
71668;DHT22;59504;54.806;9.640;2023-11-19T06:09:27;6.00;83.50
71668;DHT22;59504;54.806;9.640;2023-11-19T06:11:34;5.90;83.40
71668;DHT22;59504;54.806;9.640;2023-11-19T06:13:45;5.90;83.40
71668;DHT22;59504;54.806;9.640;2023-11-19T06:15:46;6.00;83.50
71668;DHT22;59504;54.806;9.640;2023-11-19T06:17:47;5.90;83.40
71668;DHT22;59504;54.806;9.640;2023-11-19T06:19:48;6.00;83.50
71668;DHT22;59504;54.806;9.640;2023-11-19T06:21:48;6.00;83.50
71668;DHT22;59504;54.806;9.640;2023-11-19T06:23:49;6.00;83.50
71668;DHT22;59504;54.806;9.640;2023-11-19T06:25:54;6.10;83.60
71668;DHT22;59504;54.806;9.640;2023-11-19T06:27:55;6.10;83.60
71668;DHT22;59504;54.806;9.640;2023-11-19T06:30:21;6.00;83.50
71668;DHT22;59504;54.806;9.640;2023-11-19T06:32:42;6.00;83.50
71668;DHT22;59504;54.806;9.640;2023-11-19T06:34:43;6.10;83.60
71668;DHT22;59504;54.806;9.640;2023-11-19T06:36:45;6.20;83.60
71668;DHT22;59504;54.806;9.640;2023-11-19T06:39:06;6.20;83.60
71668;DHT22;59504;54.806;9.640;2023-11-19T06:41:07;6.10;83.60
71668;DHT22;59504;54.806;9.640;2023-11-19T06:43:32;6.20;83.70
71668;DHT22;59504;54.806;9.640;2023-11-19T06:46:00;6.10;83.60
71668;DHT22;59504;54.806;9.640;2023-11-19T06:48:20;6.30;83.70
71668;DHT22;59504;54.806;9.640;2023-11-19T06:50:41;6.30;83.70
71668;DHT22;59504;54.806;9.640;2023-11-19T06:53:00;6.30;83.70
71668;DHT22;59504;54.806;9.640;2023-11-19T06:55:21;6.30;83.80
71668;DHT22;59504;54.806;9.640;2023-11-19T06:57:42;6.30;84.50
71668;DHT22;59504;54.806;9.640;2023-11-19T07:00:02;6.40;83.80
71668;DHT22;59504;54.806;9.640;2023-11-19T07:02:23;6.30;83.70
71668;DHT22;59504;54.806;9.640;2023-11-19T07:04:49;6.40;83.80
71668;DHT22;59504;54.806;9.640;2023-11-19T07:07:15;6.30;83.70
71668;DHT22;59504;54.806;9.640;2023-11-19T07:09:45;6.40;83.80
71668;DHT22;59504;54.806;9.640;2023-11-19T07:12:09;6.40;83.80
71668;DHT22;59504;54.806;9.640;2023-11-19T07:14:30;6.40;83.80
71668;DHT22;59504;54.806;9.640;2023-11-19T07:16:53;6.50;83.80
71668;DHT22;59504;54.806;9.640;2023-11-19T07:19:17;6.40;83.80
71668;DHT22;59504;54.806;9.640;2023-11-19T07:21:17;6.50;83.80
71668;DHT22;59504;54.806;9.640;2023-11-19T07:23:18;6.50;83.80
71668;DHT22;59504;54.806;9.640;2023-11-19T07:25:21;6.50;83.80
71668;DHT22;59504;54.806;9.640;2023-11-19T07:27:21;6.60;83.90
71668;DHT22;59504;54.806;9.640;2023-11-19T07:29:22;6.50;83.80
71668;DHT22;59504;54.806;9.640;2023-11-19T07:31:23;6.50;83.80
71668;DHT22;59504;54.806;9.640;2023-11-19T07:33:24;6.60;83.90
71668;DHT22;59504;54.806;9.640;2023-11-19T07:35:25;6.60;84.40
71668;DHT22;59504;54.806;9.640;2023-11-19T07:37:25;6.50;83.80
71668;DHT22;59504;54.806;9.640;2023-11-19T07:39:26;6.60;83.90
71668;DHT22;59504;54.806;9.640;2023-11-19T07:41:26;6.60;83.90
71668;DHT22;59504;54.806;9.640;2023-11-19T07:43:27;6.60;83.90
71668;DHT22;59504;54.806;9.640;2023-11-19T07:45:27;6.70;84.00
71668;DHT22;59504;54.806;9.640;2023-11-19T07:47:28;6.70;84.00
71668;DHT22;59504;54.806;9.640;2023-11-19T07:49:29;6.70;84.00
71668;DHT22;59504;54.806;9.640;2023-11-19T07:51:31;6.80;84.10
71668;DHT22;59504;54.806;9.640;2023-11-19T07:53:51;6.80;84.20
71668;DHT22;59504;54.806;9.640;2023-11-19T07:56:12;6.70;84.10
71668;DHT22;59504;54.806;9.640;2023-11-19T07:58:33;6.70;84.10
71668;DHT22;59504;54.806;9.640;2023-11-19T08:00:53;6.80;84.20
71668;DHT22;59504;54.806;9.640;2023-11-19T08:03:14;6.90;84.40
71668;DHT22;59504;54.806;9.640;2023-11-19T08:05:15;6.90;85.30
71668;DHT22;59504;54.806;9.640;2023-11-19T08:07:36;6.90;84.60
71668;DHT22;59504;54.806;9.640;2023-11-19T08:09:56;7.00;84.60
71668;DHT22;59504;54.806;9.640;2023-11-19T08:12:17;6.90;84.60
71668;DHT22;59504;54.806;9.640;2023-11-19T08:14:37;7.00;84.60
71668;DHT22;59504;54.806;9.640;2023-11-19T08:16:58;7.00;84.60
71668;DHT22;59504;54.806;9.640;2023-11-19T08:19:22;7.20;84.80
71668;DHT22;59504;54.806;9.640;2023-11-19T08:21:37;7.20;84.80
71668;DHT22;59504;54.806;9.640;2023-11-19T08:23:57;7.20;84.90
71668;DHT22;59504;54.806;9.640;2023-11-19T08:26:18;7.30;84.90
71668;DHT22;59504;54.806;9.640;2023-11-19T08:28:42;7.20;84.90
71668;DHT22;59504;54.806;9.640;2023-11-19T08:31:03;7.30;85.00
71668;DHT22;59504;54.806;9.640;2023-11-19T08:33:24;7.30;85.00
71668;DHT22;59504;54.806;9.640;2023-11-19T08:37:48;7.40;85.20
71668;DHT22;59504;54.806;9.640;2023-11-19T08:40:08;7.50;85.30
71668;DHT22;59504;54.806;9.640;2023-11-19T08:42:29;7.60;85.40
71668;DHT22;59504;54.806;9.640;2023-11-19T08:44:50;7.60;85.50
71668;DHT22;59504;54.806;9.640;2023-11-19T08:47:11;7.60;85.50
71668;DHT22;59504;54.806;9.640;2023-11-19T08:49:31;7.70;85.60
71668;DHT22;59504;54.806;9.640;2023-11-19T08:51:52;7.70;85.90
71668;DHT22;59504;54.806;9.640;2023-11-19T08:54:12;7.90;86.10
71668;DHT22;59504;54.806;9.640;2023-11-19T08:56:34;7.90;86.00
71668;DHT22;59504;54.806;9.640;2023-11-19T08:58:55;8.00;86.00
71668;DHT22;59504;54.806;9.640;2023-11-19T09:01:16;8.00;86.10
71668;DHT22;59504;54.806;9.640;2023-11-19T09:03:37;8.10;86.20
71668;DHT22;59504;54.806;9.640;2023-11-19T09:05:57;8.20;86.40
71668;DHT22;59504;54.806;9.640;2023-11-19T09:08:18;8.20;86.40
71668;DHT22;59504;54.806;9.640;2023-11-19T09:10:38;8.20;86.50
71668;DHT22;59504;54.806;9.640;2023-11-19T09:12:59;8.30;86.50
71668;DHT22;59504;54.806;9.640;2023-11-19T09:15:19;8.40;86.50
71668;DHT22;59504;54.806;9.640;2023-11-19T09:17:40;8.50;86.60
71668;DHT22;59504;54.806;9.640;2023-11-19T09:20:01;8.50;86.60
71668;DHT22;59504;54.806;9.640;2023-11-19T09:22:21;8.50;86.70
71668;DHT22;59504;54.806;9.640;2023-11-19T09:24:42;8.60;86.80
71668;DHT22;59504;54.806;9.640;2023-11-19T09:27:10;8.80;87.00
71668;DHT22;59504;54.806;9.640;2023-11-19T09:29:32;8.80;87.00
71668;DHT22;59504;54.806;9.640;2023-11-19T09:31:55;8.80;87.10
71668;DHT22;59504;54.806;9.640;2023-11-19T09:34:16;8.90;87.10
71668;DHT22;59504;54.806;9.640;2023-11-19T09:36:37;9.00;87.20
71668;DHT22;59504;54.806;9.640;2023-11-19T09:38:57;9.10;87.30
71668;DHT22;59504;54.806;9.640;2023-11-19T09:41:20;9.20;87.30
71668;DHT22;59504;54.806;9.640;2023-11-19T09:43:40;9.30;87.30
71668;DHT22;59504;54.806;9.640;2023-11-19T09:46:04;9.30;87.80
71668;DHT22;59504;54.806;9.640;2023-11-19T09:48:26;9.30;87.40
71668;DHT22;59504;54.806;9.640;2023-11-19T09:50:47;9.50;87.50
71668;DHT22;59504;54.806;9.640;2023-11-19T09:53:16;9.40;87.70
71668;DHT22;59504;54.806;9.640;2023-11-19T09:55:37;9.60;87.70
71668;DHT22;59504;54.806;9.640;2023-11-19T09:57:57;9.60;87.60
71668;DHT22;59504;54.806;9.640;2023-11-19T10:00:21;9.80;87.50
71668;DHT22;59504;54.806;9.640;2023-11-19T10:02:42;9.80;87.90
71668;DHT22;59504;54.806;9.640;2023-11-19T10:05:07;9.80;87.80
71668;DHT22;59504;54.806;9.640;2023-11-19T10:07:28;9.90;87.70
71668;DHT22;59504;54.806;9.640;2023-11-19T10:09:49;10.00;88.00
71668;DHT22;59504;54.806;9.640;2023-11-19T10:12:08;10.00;88.40
71668;DHT22;59504;54.806;9.640;2023-11-19T10:14:28;10.10;88.20
71668;DHT22;59504;54.806;9.640;2023-11-19T10:16:47;10.10;88.30
71668;DHT22;59504;54.806;9.640;2023-11-19T10:19:06;10.20;88.70
71668;DHT22;59504;54.806;9.640;2023-11-19T10:21:28;10.20;88.30
71668;DHT22;59504;54.806;9.640;2023-11-19T10:23:58;10.30;88.20
71668;DHT22;59504;54.806;9.640;2023-11-19T10:26:19;10.40;87.90
71668;DHT22;59504;54.806;9.640;2023-11-19T10:28:39;10.40;87.90
71668;DHT22;59504;54.806;9.640;2023-11-19T10:33:38;10.40;88.40
71668;DHT22;59504;54.806;9.640;2023-11-19T10:35:57;10.50;87.90
71668;DHT22;59504;54.806;9.640;2023-11-19T10:38:17;10.60;87.80
71668;DHT22;59504;54.806;9.640;2023-11-19T10:40:39;10.60;87.60
71668;DHT22;59504;54.806;9.640;2023-11-19T10:43:01;10.60;87.40
71668;DHT22;59504;54.806;9.640;2023-11-19T10:45:22;10.60;87.40
71668;DHT22;59504;54.806;9.640;2023-11-19T10:47:42;10.60;87.40
71668;DHT22;59504;54.806;9.640;2023-11-19T10:50:02;10.60;87.30
71668;DHT22;59504;54.806;9.640;2023-11-19T10:52:21;10.70;87.50
71668;DHT22;59504;54.806;9.640;2023-11-19T10:54:41;10.70;87.30
71668;DHT22;59504;54.806;9.640;2023-11-19T10:57:03;10.70;87.20
71668;DHT22;59504;54.806;9.640;2023-11-19T10:59:24;10.80;87.40
71668;DHT22;59504;54.806;9.640;2023-11-19T11:01:44;10.80;87.20
71668;DHT22;59504;54.806;9.640;2023-11-19T11:04:04;10.90;87.20
71668;DHT22;59504;54.806;9.640;2023-11-19T11:06:26;10.90;87.20
71668;DHT22;59504;54.806;9.640;2023-11-19T11:08:46;11.00;87.10
71668;DHT22;59504;54.806;9.640;2023-11-19T11:11:07;10.90;87.00
71668;DHT22;59504;54.806;9.640;2023-11-19T11:13:26;11.00;87.00
71668;DHT22;59504;54.806;9.640;2023-11-19T11:15:50;11.00;86.80
71668;DHT22;59504;54.806;9.640;2023-11-19T11:18:09;11.10;86.80
71668;DHT22;59504;54.806;9.640;2023-11-19T11:20:29;11.10;86.60
71668;DHT22;59504;54.806;9.640;2023-11-19T11:22:55;11.00;86.40
71668;DHT22;59504;54.806;9.640;2023-11-19T11:25:31;11.10;86.40
71668;DHT22;59504;54.806;9.640;2023-11-19T11:30:52;11.10;87.00
71668;DHT22;59504;54.806;9.640;2023-11-19T11:36:04;11.20;86.20
71668;DHT22;59504;54.806;9.640;2023-11-19T11:38:26;11.20;86.20
71668;DHT22;59504;54.806;9.640;2023-11-19T11:41:14;11.30;86.20
71668;DHT22;59504;54.806;9.640;2023-11-19T11:43:45;11.20;85.90
71668;DHT22;59504;54.806;9.640;2023-11-19T11:46:08;11.20;85.90
71668;DHT22;59504;54.806;9.640;2023-11-19T11:48:27;11.20;85.80
71668;DHT22;59504;54.806;9.640;2023-11-19T11:50:56;11.30;85.80
71668;DHT22;59504;54.806;9.640;2023-11-19T11:53:17;11.30;85.80
71668;DHT22;59504;54.806;9.640;2023-11-19T11:55:37;11.40;85.80
71668;DHT22;59504;54.806;9.640;2023-11-19T11:57:59;11.30;85.80
71668;DHT22;59504;54.806;9.640;2023-11-19T12:00:32;11.30;85.80
71668;DHT22;59504;54.806;9.640;2023-11-19T12:02:56;11.30;85.70
71668;DHT22;59504;54.806;9.640;2023-11-19T12:05:16;11.50;86.70
71668;DHT22;59504;54.806;9.640;2023-11-19T12:07:35;11.40;85.70
71668;DHT22;59504;54.806;9.640;2023-11-19T12:10:08;11.40;85.80
71668;DHT22;59504;54.806;9.640;2023-11-19T12:12:28;11.40;85.70
71668;DHT22;59504;54.806;9.640;2023-11-19T12:19:51;11.50;85.60
71668;DHT22;59504;54.806;9.640;2023-11-19T12:22:11;11.60;85.60
71668;DHT22;59504;54.806;9.640;2023-11-19T12:24:32;11.60;85.40
71668;DHT22;59504;54.806;9.640;2023-11-19T12:26:52;11.60;86.00
71668;DHT22;59504;54.806;9.640;2023-11-19T12:29:41;11.60;85.20
71668;DHT22;59504;54.806;9.640;2023-11-19T12:32:00;11.60;85.00
71668;DHT22;59504;54.806;9.640;2023-11-19T12:34:22;11.60;85.80
71668;DHT22;59504;54.806;9.640;2023-11-19T12:36:42;11.70;85.10
71668;DHT22;59504;54.806;9.640;2023-11-19T12:39:01;11.70;85.10
71668;DHT22;59504;54.806;9.640;2023-11-19T12:41:21;11.60;85.70
71668;DHT22;59504;54.806;9.640;2023-11-19T12:43:41;11.70;85.00
71668;DHT22;59504;54.806;9.640;2023-11-19T12:46:01;11.80;85.10
71668;DHT22;59504;54.806;9.640;2023-11-19T12:48:21;11.80;85.70
71668;DHT22;59504;54.806;9.640;2023-11-19T12:53:14;11.80;84.80
71668;DHT22;59504;54.806;9.640;2023-11-19T12:55:33;11.90;84.70
71668;DHT22;59504;54.806;9.640;2023-11-19T12:57:53;11.90;84.70
71668;DHT22;59504;54.806;9.640;2023-11-19T13:00:23;11.90;84.40
71668;DHT22;59504;54.806;9.640;2023-11-19T13:03:01;11.80;84.20
71668;DHT22;59504;54.806;9.640;2023-11-19T13:05:27;11.90;84.20
71668;DHT22;59504;54.806;9.640;2023-11-19T13:07:46;11.80;84.90
71668;DHT22;59504;54.806;9.640;2023-11-19T13:10:06;11.90;84.10
71668;DHT22;59504;54.806;9.640;2023-11-19T13:12:25;11.80;83.90
71668;DHT22;59504;54.806;9.640;2023-11-19T13:14:44;11.90;83.90
71668;DHT22;59504;54.806;9.640;2023-11-19T13:17:05;12.00;83.90
71668;DHT22;59504;54.806;9.640;2023-11-19T13:19:24;11.80;84.50
71668;DHT22;59504;54.806;9.640;2023-11-19T13:21:44;11.90;83.70
71668;DHT22;59504;54.806;9.640;2023-11-19T13:24:02;11.80;83.50
71668;DHT22;59504;54.806;9.640;2023-11-19T13:26:22;11.80;83.50
71668;DHT22;59504;54.806;9.640;2023-11-19T13:28:41;11.80;83.50
71668;DHT22;59504;54.806;9.640;2023-11-19T13:31:00;11.80;83.40
71668;DHT22;59504;54.806;9.640;2023-11-19T13:33:19;11.80;83.40
71668;DHT22;59504;54.806;9.640;2023-11-19T13:35:39;11.80;83.40
71668;DHT22;59504;54.806;9.640;2023-11-19T13:37:59;11.80;83.30
71668;DHT22;59504;54.806;9.640;2023-11-19T13:40:18;11.80;83.20
71668;DHT22;59504;54.806;9.640;2023-11-19T13:42:38;11.70;83.20
71668;DHT22;59504;54.806;9.640;2023-11-19T13:45:00;11.80;83.20
71668;DHT22;59504;54.806;9.640;2023-11-19T13:47:19;11.70;83.10
71668;DHT22;59504;54.806;9.640;2023-11-19T13:49:39;11.60;83.10
71668;DHT22;59504;54.806;9.640;2023-11-19T13:51:58;11.60;83.00
71668;DHT22;59504;54.806;9.640;2023-11-19T13:54:17;11.60;83.80
71668;DHT22;59504;54.806;9.640;2023-11-19T13:56:38;11.70;83.10
71668;DHT22;59504;54.806;9.640;2023-11-19T13:58:58;11.60;83.80
71668;DHT22;59504;54.806;9.640;2023-11-19T14:01:17;11.60;83.10
71668;DHT22;59504;54.806;9.640;2023-11-19T14:03:36;11.60;83.10
71668;DHT22;59504;54.806;9.640;2023-11-19T14:05:55;11.50;83.10
71668;DHT22;59504;54.806;9.640;2023-11-19T14:08:17;11.60;83.20
71668;DHT22;59504;54.806;9.640;2023-11-19T14:10:39;11.50;83.20
71668;DHT22;59504;54.806;9.640;2023-11-19T14:13:01;11.50;83.20
71668;DHT22;59504;54.806;9.640;2023-11-19T14:15:21;11.50;83.20
71668;DHT22;59504;54.806;9.640;2023-11-19T14:17:40;11.50;83.30
71668;DHT22;59504;54.806;9.640;2023-11-19T14:19:59;11.40;83.20
71668;DHT22;59504;54.806;9.640;2023-11-19T14:22:19;11.40;83.30
71668;DHT22;59504;54.806;9.640;2023-11-19T14:24:38;11.40;83.30
71668;DHT22;59504;54.806;9.640;2023-11-19T14:27:00;11.50;84.10
71668;DHT22;59504;54.806;9.640;2023-11-19T14:29:19;11.40;83.30
71668;DHT22;59504;54.806;9.640;2023-11-19T14:31:38;11.50;83.40
71668;DHT22;59504;54.806;9.640;2023-11-19T14:33:58;11.40;83.40
71668;DHT22;59504;54.806;9.640;2023-11-19T14:36:18;11.40;83.40
71668;DHT22;59504;54.806;9.640;2023-11-19T14:38:37;11.40;83.40
71668;DHT22;59504;54.806;9.640;2023-11-19T14:40:56;11.40;83.40
71668;DHT22;59504;54.806;9.640;2023-11-19T14:43:15;11.40;84.20
71668;DHT22;59504;54.806;9.640;2023-11-19T14:45:35;11.30;83.50
71668;DHT22;59504;54.806;9.640;2023-11-19T14:47:54;11.40;83.50
71668;DHT22;59504;54.806;9.640;2023-11-19T14:50:13;11.30;83.50
71668;DHT22;59504;54.806;9.640;2023-11-19T14:52:32;11.40;83.50
71668;DHT22;59504;54.806;9.640;2023-11-19T14:54:53;11.40;83.50
71668;DHT22;59504;54.806;9.640;2023-11-19T14:57:16;11.30;83.40
71668;DHT22;59504;54.806;9.640;2023-11-19T14:59:35;11.30;83.40
71668;DHT22;59504;54.806;9.640;2023-11-19T15:01:55;11.30;83.40
71668;DHT22;59504;54.806;9.640;2023-11-19T15:04:14;11.30;83.40
71668;DHT22;59504;54.806;9.640;2023-11-19T15:06:35;11.20;83.30
71668;DHT22;59504;54.806;9.640;2023-11-19T15:08:54;11.30;84.10
71668;DHT22;59504;54.806;9.640;2023-11-19T15:11:19;11.30;83.40
71668;DHT22;59504;54.806;9.640;2023-11-19T15:13:39;11.20;83.50
71668;DHT22;59504;54.806;9.640;2023-11-19T15:16:00;11.30;83.50
71668;DHT22;59504;54.806;9.640;2023-11-19T15:18:26;11.30;83.50
71668;DHT22;59504;54.806;9.640;2023-11-19T15:21:03;11.20;83.40
71668;DHT22;59504;54.806;9.640;2023-11-19T15:23:48;11.20;83.30
71668;DHT22;59504;54.806;9.640;2023-11-19T15:26:07;11.20;83.30
71668;DHT22;59504;54.806;9.640;2023-11-19T15:28:29;11.20;84.10